createdAt,value
2017-11-12T07:29:26.181Z,91.07
2017-11-12T07:30:06.696Z,91.64
2017-11-12T07:30:47.250Z,91.46
2017-11-12T07:31:27.791Z,91.64
2017-11-12T07:32:08.381Z,91.93
2017-11-12T07:32:48.896Z,92.03
2017-11-12T07:33:29.430Z,91.83
2017-11-12T07:34:09.982Z,91.46
2017-11-12T07:34:50.529Z,91.46
2017-11-12T07:35:31.027Z,90.79
2017-11-12T07:36:11.556Z,90.31
2017-11-12T07:36:52.089Z,90.59
2017-11-12T07:37:32.621Z,91.07
2017-11-12T07:38:13.206Z,91.36
2017-11-12T07:38:53.695Z,90.98
2017-11-12T07:39:34.230Z,91.17
2017-11-12T07:40:14.779Z,91.36
2017-11-12T07:40:55.315Z,91.74
2017-11-12T07:41:35.904Z,92.32
2017-11-12T07:42:16.376Z,92.12
2017-11-12T07:42:56.867Z,92.88
2017-11-12T07:43:37.642Z,92.12
2017-11-12T07:44:18.052Z,92.22
2017-11-12T07:44:58.544Z,92.88
2017-11-12T07:45:39.104Z,92.22
2017-11-12T07:46:19.615Z,91.83
2017-11-12T07:47:00.238Z,91.46
2017-11-12T07:47:40.939Z,91.74
2017-11-12T07:48:21.312Z,91.93
2017-11-12T07:49:01.843Z,90.88
2017-11-12T07:49:42.574Z,90.88
2017-11-12T07:50:22.999Z,91.55
2017-11-12T07:51:03.555Z,91.17
2017-11-12T07:51:44.120Z,91.5
2017-11-12T07:52:24.606Z,91.55
2017-11-12T07:53:05.234Z,91.41
2017-11-12T07:53:45.737Z,91.07
2017-11-12T07:54:26.303Z,91.55
2017-11-12T07:55:06.887Z,91.17
2017-11-12T07:55:47.421Z,90.64
2017-11-12T07:56:27.940Z,91.22
2017-11-12T07:57:08.472Z,91.79
2017-11-12T07:57:49.095Z,91.79
2017-11-12T07:58:29.577Z,92.55
2017-11-12T07:59:10.121Z,92.46
2017-11-12T07:59:50.837Z,92.74
2017-11-12T08:00:31.293Z,92.6
2017-11-12T08:01:11.792Z,92.12
2017-11-12T08:01:52.385Z,92.32
2017-11-12T08:02:32.854Z,92.5
2017-11-12T08:03:14.363Z,92.5
2017-11-12T08:03:54.037Z,92.79
2017-11-12T08:04:35.349Z,92.98
2017-11-12T08:05:15.206Z,92.69
2017-11-12T08:05:55.743Z,92.6
2017-11-12T08:06:36.434Z,92.32
2017-11-12T08:07:16.986Z,92.12
2017-11-12T08:07:57.509Z,92.88
2017-11-12T08:08:38.109Z,92.5
2017-11-12T08:09:18.635Z,92.88
2017-11-12T08:09:59.184Z,92.32
2017-11-12T08:10:39.770Z,92.32
2017-11-12T08:11:20.229Z,92.6
2017-11-12T08:12:00.794Z,92.41
2017-11-12T08:12:41.345Z,92.69
2017-11-12T08:13:21.853Z,92.79
2017-11-12T08:14:02.423Z,92.79
2017-11-12T08:14:42.965Z,92.69
2017-11-12T08:15:23.529Z,92.69
2017-11-12T08:16:04.044Z,92.79
2017-11-12T08:16:44.601Z,92.6
2017-11-12T08:17:25.140Z,92.5
2017-11-12T08:18:05.653Z,92.98
2017-11-12T08:18:46.205Z,92.41
2017-11-12T08:19:26.780Z,92.41
2017-11-12T08:20:07.279Z,92.32
2017-11-12T08:20:47.834Z,92.6
2017-11-12T08:21:28.459Z,92.98
2017-11-12T08:22:09.060Z,93.46
2017-11-12T08:22:49.565Z,92.88
2017-11-12T08:23:30.119Z,92.98
2017-11-12T08:24:10.679Z,93.17
2017-11-12T08:24:51.212Z,92.88
2017-11-12T08:25:31.770Z,92.6
2017-11-12T08:26:12.257Z,92.88
2017-11-12T08:26:52.818Z,92.79
2017-11-12T08:27:33.396Z,92.69
2017-11-12T08:28:13.907Z,92.6
2017-11-12T08:28:54.482Z,92.6
2017-11-12T08:29:35.060Z,92.32
2017-11-12T08:30:15.520Z,92.03
2017-11-12T08:30:56.060Z,91.46
2017-11-12T08:31:36.626Z,91.83
2017-11-12T08:32:17.150Z,91.27
2017-11-12T08:32:57.707Z,91.55
2017-11-12T08:33:38.279Z,91.64
2017-11-12T08:34:18.895Z,91.17
2017-11-12T08:34:59.437Z,91.07
2017-11-12T08:35:39.909Z,90.98
2017-11-12T08:36:20.432Z,91.07
2017-11-12T08:37:00.956Z,91.17
2017-11-12T08:37:41.488Z,91.07
2017-11-12T08:38:22.024Z,90.98
2017-11-12T08:39:02.600Z,91.27
2017-11-12T08:39:43.150Z,91.74
2017-11-12T08:40:23.633Z,92.22
2017-11-12T08:41:04.187Z,92.41
2017-11-12T08:41:44.717Z,91.46
2017-11-12T08:42:25.316Z,92.03
2017-11-12T08:43:05.882Z,91.31
2017-11-12T08:43:46.387Z,91.83
2017-11-12T08:44:26.965Z,92.03
2017-11-12T08:45:07.522Z,91.98
2017-11-12T08:45:48.042Z,92.6
2017-11-12T08:46:28.591Z,92.22
2017-11-12T08:47:09.133Z,92.03
2017-11-12T08:47:49.733Z,91.83
2017-11-12T08:48:30.245Z,92.32
2017-11-12T08:49:10.809Z,92.41
2017-11-12T08:49:51.340Z,91.83
2017-11-12T08:50:31.834Z,91.93
2017-11-12T08:51:12.338Z,91.98
2017-11-12T08:51:52.922Z,92.98
2017-11-12T08:52:33.442Z,92.22
2017-11-12T08:53:13.992Z,91.93
2017-11-12T08:53:54.520Z,92.08
2017-11-12T08:54:35.099Z,92.41
2017-11-12T08:55:15.630Z,92.6
2017-11-12T08:55:56.197Z,92.88
2017-11-12T08:56:36.772Z,92.79
2017-11-12T08:57:17.338Z,93.36
2017-11-12T08:57:57.898Z,92.98
2017-11-12T08:58:38.384Z,92.69
2017-11-12T08:59:18.952Z,93.08
2017-11-12T08:59:59.504Z,93.93
2017-11-12T09:00:40.065Z,93.93
2017-11-12T09:01:20.540Z,94.12
2017-11-12T09:02:01.118Z,94.22
2017-11-12T09:02:41.671Z,94.41
2017-11-12T09:03:22.192Z,93.84
2017-11-12T09:04:02.731Z,93.74
2017-11-12T09:04:43.279Z,93.65
2017-11-12T09:05:23.807Z,93.65
2017-11-12T09:06:04.326Z,93.74
2017-11-12T09:06:44.840Z,93.65
2017-11-12T09:07:25.410Z,93.51
2017-11-12T09:08:05.943Z,94.12
2017-11-12T09:08:46.504Z,94.41
2017-11-12T09:09:27.070Z,94.22
2017-11-12T09:10:07.582Z,93.08
2017-11-12T09:10:48.162Z,93.55
2017-11-12T09:11:28.740Z,93.36
2017-11-12T09:12:09.322Z,93.17
2017-11-12T09:12:49.841Z,93.51
2017-11-12T09:13:30.387Z,93.51
2017-11-12T09:14:10.911Z,94.08
2017-11-12T09:14:51.440Z,94.12
2017-11-12T09:15:32.000Z,93.84
2017-11-12T09:16:12.586Z,93.6
2017-11-12T09:16:53.067Z,93.79
2017-11-12T09:17:33.655Z,94.22
2017-11-12T09:18:14.180Z,93.93
2017-11-12T09:18:54.756Z,93.36
2017-11-12T09:19:35.283Z,94.22
2017-11-12T09:20:15.812Z,93.36
2017-11-12T09:20:56.377Z,93.84
2017-11-12T09:21:36.988Z,93.55
2017-11-12T09:22:17.531Z,93.12
2017-11-12T09:22:58.031Z,93.65
2017-11-12T09:23:38.557Z,93.17
2017-11-12T09:24:19.166Z,93.08
2017-11-12T09:24:59.690Z,92.93
2017-11-12T09:25:40.202Z,92.98
2017-11-12T09:26:20.736Z,92.88
2017-11-12T09:27:01.257Z,93.65
2017-11-12T09:27:41.854Z,93.74
2017-11-12T09:28:22.375Z,94.03
2017-11-12T09:29:02.903Z,94.22
2017-11-12T09:29:43.506Z,93.93
2017-11-12T09:30:23.985Z,93.74
2017-11-12T09:31:04.543Z,93.93
2017-11-12T09:31:45.079Z,93.93
2017-11-12T09:32:25.586Z,94.32
2017-11-12T09:33:06.158Z,94.22
2017-11-12T09:33:46.812Z,94.03
2017-11-12T09:34:27.352Z,94.03
2017-11-12T09:35:07.934Z,93.74
2017-11-12T09:35:48.534Z,93.93
2017-11-12T09:36:29.094Z,93.74
2017-11-12T09:37:09.623Z,94.03
2017-11-12T09:37:50.197Z,94.03
2017-11-12T09:38:30.949Z,92.98
2017-11-12T09:39:11.499Z,92.74
2017-11-12T09:39:52.011Z,92.79
2017-11-12T09:40:32.696Z,92.46
2017-11-12T09:41:13.219Z,93.46
2017-11-12T09:41:53.805Z,93.74
2017-11-12T09:42:34.331Z,93.7
2017-11-12T09:43:14.859Z,93.93
2017-11-12T09:43:55.401Z,94.22
2017-11-12T09:44:36.001Z,93.55
2017-11-12T09:45:16.569Z,93.74
2017-11-12T09:45:57.014Z,93.84
2017-11-12T09:46:38.362Z,93.93
2017-11-12T09:47:19.884Z,93.84
2017-11-12T09:48:01.476Z,93.93
2017-11-12T09:48:43.128Z,92.6
2017-11-12T09:49:24.792Z,92.79
2017-11-12T09:50:06.233Z,92.88
2017-11-12T09:50:47.782Z,93.55
2017-11-12T09:51:29.413Z,93.27
2017-11-12T09:52:10.894Z,93.36
2017-11-12T09:52:52.316Z,93.36
2017-11-12T09:53:32.833Z,93.65
2017-11-12T09:54:13.426Z,93.27
2017-11-12T09:54:53.960Z,94.22
2017-11-12T09:55:34.564Z,93.08
2017-11-12T09:56:15.064Z,92.98
2017-11-12T09:56:55.693Z,93.74
2017-11-12T09:57:36.262Z,93.17
2017-11-12T09:58:17.709Z,93.55
2017-11-12T09:58:58.376Z,94.41
2017-11-12T09:59:38.993Z,94.32
2017-11-12T10:00:19.503Z,94.22
2017-11-12T10:01:00.020Z,94.7
2017-11-12T10:01:40.558Z,94.6
2017-11-12T10:02:21.189Z,94.6
2017-11-12T10:03:01.778Z,94.32
2017-11-12T10:03:42.329Z,94.41
2017-11-12T10:04:22.867Z,94.32
2017-11-12T10:05:03.439Z,94.22
2017-11-12T10:05:43.966Z,94.6
2017-11-12T10:06:24.668Z,94.22
2017-11-12T10:07:05.190Z,94.51
2017-11-12T10:07:45.765Z,94.32
2017-11-12T10:08:26.386Z,94.41
2017-11-12T10:09:07.113Z,94.32
2017-11-12T10:09:47.644Z,94.98
2017-11-12T10:10:28.209Z,95.08
2017-11-12T10:11:09.049Z,94.6
2017-11-12T10:11:49.590Z,94.32
2017-11-12T10:12:30.171Z,94.79
2017-11-12T10:13:10.798Z,95.08
2017-11-12T10:13:51.352Z,94.7
2017-11-12T10:14:31.901Z,94.22
2017-11-12T10:15:12.530Z,94.22
2017-11-12T10:15:53.087Z,93.74
2017-11-12T10:16:33.594Z,93.84
2017-11-12T10:17:14.182Z,94.32
2017-11-12T10:17:54.686Z,94.41
2017-11-12T10:18:35.224Z,94.7
2017-11-12T10:19:15.797Z,94.41
2017-11-12T10:19:56.274Z,93.84
2017-11-12T10:20:36.825Z,93.93
2017-11-12T10:21:17.496Z,95.27
2017-11-12T10:21:58.140Z,95.37
2017-11-12T10:22:38.667Z,95.08
2017-11-12T10:23:19.157Z,95.75
2017-11-12T10:23:59.954Z,94.51
2017-11-12T10:24:40.417Z,95.17
2017-11-12T10:25:20.951Z,94.7
2017-11-12T10:26:01.552Z,94.41
2017-11-12T10:26:42.116Z,94.51
2017-11-12T10:27:22.695Z,94.41
2017-11-12T10:28:03.274Z,94.79
2017-11-12T10:28:44.025Z,94.51
2017-11-12T10:29:24.574Z,94.22
2017-11-12T10:30:05.124Z,95.08
2017-11-12T10:30:45.703Z,94.41
2017-11-12T10:31:26.233Z,94.12
2017-11-12T10:32:06.750Z,94.6
2017-11-12T10:32:47.287Z,94.32
2017-11-12T10:33:27.795Z,94.89
2017-11-12T10:34:08.429Z,94.7
2017-11-12T10:34:48.920Z,95.17
2017-11-12T10:35:29.653Z,94.89
2017-11-12T10:36:10.374Z,94.89
2017-11-12T10:36:50.944Z,95.27
2017-11-12T10:37:31.468Z,95.08
2017-11-12T10:38:12.055Z,95.08
2017-11-12T10:38:52.622Z,95.17
2017-11-12T10:39:33.174Z,94.51
2017-11-12T10:40:13.686Z,95.08
2017-11-12T10:40:54.444Z,95.56
2017-11-12T10:41:35.214Z,95.65
2017-11-12T10:42:15.677Z,95.56
2017-11-12T10:42:56.234Z,95.65
2017-11-12T10:43:36.815Z,95.65
2017-11-12T10:44:17.506Z,95.65
2017-11-12T10:44:58.064Z,95.65
2017-11-12T10:45:38.520Z,95.37
2017-11-12T10:46:19.071Z,95.56
2017-11-12T10:46:59.800Z,95.65
2017-11-12T10:47:40.184Z,95.94
2017-11-12T10:48:20.755Z,95.75
2017-11-12T10:49:01.329Z,95.56
2017-11-12T10:49:42.105Z,95.65
2017-11-12T10:50:22.736Z,94.79
2017-11-12T10:51:03.301Z,95.08
2017-11-12T10:51:43.874Z,95.27
2017-11-12T10:52:24.392Z,94.79
2017-11-12T10:53:05.175Z,95.22
2017-11-12T10:53:45.544Z,94.41
2017-11-12T10:54:26.097Z,94.32
2017-11-12T10:55:06.687Z,94.79
2017-11-12T10:55:47.237Z,94.22
2017-11-12T10:56:27.840Z,93.93
2017-11-12T10:57:08.386Z,94.12
2017-11-12T10:57:48.896Z,94.22
2017-11-12T10:58:29.494Z,94.22
2017-11-12T10:59:09.951Z,94.98
2017-11-12T10:59:50.565Z,95.46
2017-11-12T11:00:31.074Z,95.46
2017-11-12T11:01:11.619Z,95.65
2017-11-12T11:01:52.253Z,95.46
2017-11-12T11:02:32.799Z,95.84
2017-11-12T11:03:13.357Z,95.46
2017-11-12T11:03:53.851Z,95.7
2017-11-12T11:04:34.444Z,95.12
2017-11-12T11:05:14.954Z,95.32
2017-11-12T11:05:55.484Z,96.56
2017-11-12T11:06:36.044Z,96.08
2017-11-12T11:07:16.581Z,95.61
2017-11-12T11:07:57.149Z,96.17
2017-11-12T11:08:37.659Z,96.27
2017-11-12T11:09:18.256Z,96.56
2017-11-12T11:09:58.788Z,96.36
2017-11-12T11:10:39.347Z,96.6
2017-11-12T11:11:19.927Z,96.75
2017-11-12T11:12:00.445Z,96.94
2017-11-12T11:12:41.056Z,96.6
2017-11-12T11:13:21.727Z,97.84
2017-11-12T11:14:02.238Z,97.46
2017-11-12T11:14:42.795Z,97.17
2017-11-12T11:15:23.350Z,97.65
2017-11-12T11:16:03.919Z,97.65
2017-11-12T11:16:44.463Z,97.56
2017-11-12T11:17:25.032Z,97.46
2017-11-12T11:18:05.577Z,97.65
2017-11-12T11:18:46.115Z,97.36
2017-11-12T11:19:26.670Z,96.41
2017-11-12T11:20:07.301Z,96.32
2017-11-12T11:20:47.810Z,95.94
2017-11-12T11:21:28.366Z,96.7
2017-11-12T11:22:08.915Z,96.98
2017-11-12T11:22:49.445Z,97.36
2017-11-12T11:23:29.992Z,96.8
2017-11-12T11:24:10.573Z,97.56
2017-11-12T11:24:51.150Z,97.46
2017-11-12T11:25:31.698Z,96.22
2017-11-12T11:26:12.441Z,96.6
2017-11-12T11:26:52.998Z,96.6
2017-11-12T11:27:33.546Z,96.6
2017-11-12T11:28:14.141Z,96.12
2017-11-12T11:28:54.723Z,96.32
2017-11-12T11:29:35.269Z,96.03
2017-11-12T11:30:15.801Z,95.56
2017-11-12T11:30:56.346Z,95.84
2017-11-12T11:31:36.988Z,96.03
2017-11-12T11:32:17.460Z,96.08
2017-11-12T11:32:58.083Z,96.41
2017-11-12T11:33:38.605Z,96.03
2017-11-12T11:34:19.106Z,95.94
2017-11-12T11:34:59.831Z,96.03
2017-11-12T11:35:40.354Z,96.7
2017-11-12T11:36:20.979Z,96.6
2017-11-12T11:37:01.519Z,95.84
2017-11-12T11:37:42.137Z,96.03
2017-11-12T11:38:22.709Z,95.84
2017-11-12T11:39:03.264Z,95.65
2017-11-12T11:39:43.791Z,95.17
2017-11-12T11:40:24.261Z,95.56
2017-11-12T11:41:04.888Z,95.65
2017-11-12T11:41:45.401Z,95.94
2017-11-12T11:42:25.989Z,95.65
2017-11-12T11:43:06.519Z,95.65
2017-11-12T11:43:47.064Z,96.12
2017-11-12T11:44:27.639Z,96.41
2017-11-12T11:45:08.213Z,96.41
2017-11-12T11:45:48.716Z,96.7
2017-11-12T11:46:29.268Z,96.41
2017-11-12T11:47:09.801Z,95.94
2017-11-12T11:47:50.408Z,95.94
2017-11-12T11:48:30.979Z,96.22
2017-11-12T11:49:11.487Z,96.12
2017-11-12T11:49:52.066Z,95.84
2017-11-12T11:50:32.604Z,95.94
2017-11-12T11:51:13.171Z,95.79
2017-11-12T11:51:53.719Z,96.46
2017-11-12T11:52:34.469Z,96.75
2017-11-12T11:53:15.028Z,96.27
2017-11-12T11:53:55.592Z,95.98
2017-11-12T11:54:36.383Z,95.22
2017-11-12T11:55:16.886Z,95.98
2017-11-12T11:55:57.502Z,96.89
2017-11-12T11:56:38.139Z,96.03
2017-11-12T11:57:18.658Z,96.89
2017-11-12T11:57:59.332Z,97.36
2017-11-12T11:58:39.987Z,98.69
2017-11-12T11:59:20.485Z,96.89
2017-11-12T12:00:00.999Z,96.89
2017-11-12T12:00:42.241Z,96.41
2017-11-12T12:01:22.820Z,96.12
2017-11-12T12:02:03.420Z,97.5
2017-11-12T12:02:44.006Z,98.03
2017-11-12T12:03:24.522Z,98.55
2017-11-12T12:04:05.211Z,97.46
2017-11-12T12:04:45.737Z,96.51
2017-11-12T12:05:26.363Z,96.89
2017-11-12T12:06:06.912Z,96.17
2017-11-12T12:06:47.462Z,96.08
2017-11-12T12:07:28.093Z,95.6
2017-11-12T12:08:08.645Z,95.79
2017-11-12T12:08:49.237Z,95.6
2017-11-12T12:09:29.806Z,94.93
2017-11-12T12:10:10.381Z,94.37
2017-11-12T12:10:50.958Z,94.93
2017-11-12T12:11:31.533Z,94.74
2017-11-12T12:12:12.028Z,95.32
2017-11-12T12:12:52.567Z,95.51
2017-11-12T12:13:33.124Z,94.84
2017-11-12T12:14:13.708Z,95.22
2017-11-12T12:14:54.169Z,95.22
2017-11-12T12:15:34.748Z,95.6
2017-11-12T12:16:15.335Z,95.08
2017-11-12T12:16:55.908Z,94.32
2017-11-12T12:17:36.517Z,94.32
2017-11-12T12:18:17.061Z,93.32
2017-11-12T12:18:57.622Z,93.23
2017-11-12T12:19:38.172Z,93.89
2017-11-12T12:20:18.713Z,94.7
2017-11-12T12:20:59.230Z,94.32
2017-11-12T12:21:39.791Z,93.55
2017-11-12T12:22:20.300Z,93.98
2017-11-12T12:23:00.904Z,94.18
2017-11-12T12:23:41.401Z,93.98
2017-11-12T12:24:21.976Z,93.04
2017-11-12T12:25:02.602Z,92.56
2017-11-12T12:25:43.174Z,93.7
2017-11-12T12:26:23.707Z,93.7
2017-11-12T12:27:04.337Z,93.04
2017-11-12T12:27:44.906Z,92.75
2017-11-12T12:28:25.420Z,93.13
2017-11-12T12:29:05.984Z,93.04
2017-11-12T12:29:46.584Z,92.89
2017-11-12T12:30:27.153Z,94.51
2017-11-12T12:31:07.716Z,92.41
2017-11-12T12:31:48.300Z,92.75
2017-11-12T12:32:28.867Z,92.65
2017-11-12T12:33:09.472Z,92.27
2017-11-12T12:33:50.019Z,92.65
2017-11-12T12:34:32.241Z,94.13
2017-11-12T12:35:12.797Z,94.42
2017-11-12T12:35:53.534Z,94.03
2017-11-12T12:36:34.048Z,93.84
2017-11-12T12:37:14.677Z,94.03
2017-11-12T12:37:55.532Z,93.84
2017-11-12T12:38:36.091Z,92.7
2017-11-12T12:39:16.652Z,92.79
2017-11-12T12:39:57.580Z,91.94
2017-11-12T12:40:38.066Z,93.84
2017-11-12T12:41:18.636Z,93.84
2017-11-12T12:41:59.295Z,94.03
2017-11-12T12:42:39.906Z,93.18
2017-11-12T12:43:20.553Z,92.7
2017-11-12T12:44:01.109Z,92.7
2017-11-12T12:44:41.867Z,92.7
2017-11-12T12:45:22.448Z,92.51
2017-11-12T12:46:03.194Z,91.94
2017-11-12T12:46:43.668Z,92.32
2017-11-12T12:47:24.223Z,93.55
2017-11-12T12:48:04.735Z,92.32
2017-11-12T12:48:45.348Z,91.84
2017-11-12T12:49:25.865Z,92.22
2017-11-12T12:50:06.481Z,91.56
2017-11-12T12:50:47.014Z,92.22
2017-11-12T12:51:27.591Z,92.22
2017-11-12T12:52:08.243Z,91.75
2017-11-12T12:52:48.780Z,91.27
2017-11-12T12:53:29.335Z,91.65
2017-11-12T12:54:09.849Z,91.84
2017-11-12T12:54:50.392Z,92.32
2017-11-12T12:55:30.956Z,91.84
2017-11-12T12:56:11.635Z,91.08
2017-11-12T12:56:52.142Z,91.27
2017-11-12T12:57:32.686Z,91.56
2017-11-12T12:58:13.252Z,92.7
2017-11-12T12:58:53.826Z,93.37
2017-11-12T12:59:34.339Z,92.79
2017-11-12T13:00:14.846Z,92.03
2017-11-12T13:00:55.465Z,90.61
2017-11-12T13:01:35.947Z,90.99
2017-11-12T13:02:16.515Z,91.37
2017-11-12T13:02:57.088Z,90.89
2017-11-12T13:03:37.637Z,90.61
2017-11-12T13:04:18.346Z,90.13
2017-11-12T13:04:58.895Z,90.51
2017-11-12T13:05:39.395Z,90.8
2017-11-12T13:06:20.146Z,90.47
2017-11-12T13:07:00.723Z,90.8
2017-11-12T13:07:41.293Z,90.94
2017-11-12T13:08:21.852Z,91.03
2017-11-12T13:09:02.434Z,90.84
2017-11-12T13:09:42.984Z,90.75
2017-11-12T13:10:23.591Z,90.84
2017-11-12T13:11:04.083Z,91.03
2017-11-12T13:11:44.651Z,91.75
2017-11-12T13:12:25.171Z,90.47
2017-11-12T13:13:05.767Z,90.08
2017-11-12T13:13:46.275Z,89.8
2017-11-12T13:14:26.862Z,89.8
2017-11-12T13:15:07.416Z,89.99
2017-11-12T13:15:47.917Z,90.66
2017-11-12T13:16:28.543Z,90.56
2017-11-12T13:17:09.071Z,90.94
2017-11-12T13:17:49.754Z,90.47
2017-11-12T13:18:30.487Z,89.89
2017-11-12T13:19:11.109Z,90.56
2017-11-12T13:19:51.663Z,90.84
2017-11-12T13:20:32.279Z,90.94
2017-11-12T13:21:12.842Z,90.84
2017-11-12T13:21:53.463Z,89.8
2017-11-12T13:22:33.960Z,90.23
2017-11-12T13:23:14.568Z,90.52
2017-11-12T13:23:55.129Z,91.13
2017-11-12T13:24:35.662Z,90.89
2017-11-12T13:25:16.208Z,91.32
2017-11-12T13:25:56.764Z,90.75
2017-11-12T13:26:37.268Z,90.84
2017-11-12T13:27:17.822Z,90.08
2017-11-12T13:27:58.348Z,89.7
2017-11-12T13:28:38.924Z,90.66
2017-11-12T13:29:19.457Z,90.66
2017-11-12T13:30:00.054Z,89.89
2017-11-12T13:30:40.681Z,89.99
2017-11-12T13:31:21.236Z,89.89
2017-11-12T13:32:01.855Z,90.56
2017-11-12T13:32:42.397Z,90.08
2017-11-12T13:33:22.985Z,89.23
2017-11-12T13:34:03.626Z,88.75
2017-11-12T13:34:44.237Z,89.14
2017-11-12T13:35:24.736Z,88.28
2017-11-12T13:36:05.355Z,87.9
2017-11-12T13:36:45.869Z,88.66
2017-11-12T13:37:26.460Z,88.75
2017-11-12T13:38:07.002Z,87.71
2017-11-12T13:38:47.497Z,87.52
2017-11-12T13:39:28.093Z,88.28
2017-11-12T13:40:08.626Z,88.18
2017-11-12T13:40:49.218Z,87.99
2017-11-12T13:41:29.767Z,88.37
2017-11-12T13:42:10.296Z,87.99
2017-11-12T13:42:50.882Z,88.37
2017-11-12T13:43:31.450Z,88.56
2017-11-12T13:44:12.024Z,88.94
2017-11-12T13:44:52.604Z,88.85
2017-11-12T13:45:33.168Z,87.8
2017-11-12T13:46:13.849Z,87.42
2017-11-12T13:46:54.670Z,88.56
2017-11-12T13:47:35.203Z,88.28
2017-11-12T13:48:15.792Z,88.37
2017-11-12T13:48:56.360Z,88.28
2017-11-12T13:49:36.906Z,88.66
2017-11-12T13:50:17.566Z,88.37
2017-11-12T13:50:57.991Z,87.8
2017-11-12T13:51:38.719Z,87.71
2017-11-12T13:52:19.315Z,88.09
2017-11-12T13:53:00.017Z,87.61
2017-11-12T13:53:40.599Z,87.13
2017-11-12T13:54:21.089Z,87.23
2017-11-12T13:55:02.094Z,87.9
2017-11-12T13:55:42.946Z,88.46
2017-11-12T13:56:23.466Z,88.18
2017-11-12T13:57:04.096Z,88.56
2017-11-12T13:57:44.607Z,88.18
2017-11-12T13:58:25.148Z,88.56
2017-11-12T13:59:05.708Z,87.71
2017-11-12T13:59:46.281Z,87.04
2017-11-12T14:00:26.869Z,87.04
2017-11-12T14:01:07.462Z,87.61
2017-11-12T14:01:48.078Z,87.42
2017-11-12T14:02:28.589Z,88.18
2017-11-12T14:03:09.156Z,88.28
2017-11-12T14:03:49.701Z,87.9
2017-11-12T14:04:30.276Z,87.8
2017-11-12T14:05:10.832Z,87.99
2017-11-12T14:05:51.433Z,87.32
2017-11-12T14:06:32.068Z,87.9
2017-11-12T14:07:12.499Z,87.61
2017-11-12T14:07:53.036Z,87.23
2017-11-12T14:08:33.603Z,87.99
2017-11-12T14:09:14.139Z,87.42
2017-11-12T14:09:54.732Z,87.13
2017-11-12T14:10:35.225Z,87.32
2017-11-12T14:11:15.765Z,86.94
2017-11-12T14:11:56.446Z,87.23
2017-11-12T14:12:37.018Z,87.42
2017-11-12T14:13:17.553Z,86.85
2017-11-12T14:13:58.153Z,86.76
2017-11-12T14:14:38.651Z,87.52
2017-11-12T14:15:19.201Z,87.42
2017-11-12T14:15:59.893Z,88.09
2017-11-12T14:16:40.381Z,87.19
2017-11-12T14:17:23.802Z,86.61
2017-11-12T14:18:04.297Z,86.85
2017-11-12T14:18:44.889Z,87.71
2017-11-12T14:19:25.518Z,87.61
2017-11-12T14:20:06.124Z,88.18
2017-11-12T14:20:46.664Z,88.46
2017-11-12T14:21:27.286Z,88.37
2017-11-12T14:22:07.788Z,87.52
2017-11-12T14:22:48.521Z,87.52
2017-11-12T14:23:29.070Z,87.23
2017-11-12T14:24:09.634Z,87.61
2017-11-12T14:24:50.247Z,88.37
2017-11-12T14:25:30.874Z,88.46
2017-11-12T14:26:11.352Z,88.66
2017-11-12T14:26:51.977Z,88.94
2017-11-12T14:27:32.664Z,89.04
2017-11-12T14:28:13.411Z,89.47
2017-11-12T14:28:54.034Z,89.23
2017-11-12T14:29:34.681Z,89.23
2017-11-12T14:30:15.182Z,88.66
2017-11-12T14:30:55.814Z,88.37
2017-11-12T14:31:36.479Z,88.18
2017-11-12T14:32:16.973Z,87.99
2017-11-12T14:32:57.554Z,87.61
2017-11-12T14:33:41.090Z,87.61
2017-11-12T14:34:21.780Z,87.52
2017-11-12T14:35:02.642Z,87.32
2017-11-12T14:35:43.205Z,88.18
2017-11-12T14:36:23.808Z,87.42
2017-11-12T14:37:04.582Z,87.61
2017-11-12T14:37:45.148Z,87.13
2017-11-12T14:38:25.700Z,87.52
2017-11-12T14:39:06.408Z,87.04
2017-11-12T14:39:46.866Z,87.71
2017-11-12T14:40:27.542Z,87.32
2017-11-12T14:41:08.008Z,87.99
2017-11-12T14:41:48.645Z,88.75
2017-11-12T14:42:29.227Z,88.18
2017-11-12T14:43:09.905Z,88.66
2017-11-12T14:43:50.575Z,89.32
2017-11-12T14:44:31.039Z,89.32
2017-11-12T14:45:11.598Z,89.32
2017-11-12T14:45:52.211Z,89.14
2017-11-12T14:46:32.838Z,89.61
2017-11-12T14:47:13.373Z,89.32
2017-11-12T14:47:53.969Z,88.66
2017-11-12T14:48:34.534Z,87.23
2017-11-12T14:49:15.282Z,87.23
2017-11-12T14:49:55.812Z,87.04
2017-11-12T14:50:36.646Z,87.42
2017-11-12T14:51:17.086Z,88.18
2017-11-12T14:51:57.732Z,88.46
2017-11-12T14:52:38.301Z,88.37
2017-11-12T14:53:18.877Z,88.04
2017-11-12T14:53:59.509Z,87.94
2017-11-12T14:54:40.184Z,86.66
2017-11-12T14:55:20.897Z,86.94
2017-11-12T14:56:01.481Z,87.32
2017-11-12T14:56:42.057Z,88.18
2017-11-12T14:57:22.659Z,87.52
2017-11-12T14:58:03.171Z,88.04
2017-11-12T14:58:43.739Z,88.37
2017-11-12T14:59:24.399Z,88.6
2017-11-12T15:00:04.940Z,88.46
2017-11-12T15:00:45.517Z,88.46
2017-11-12T15:01:26.041Z,88.66
2017-11-12T15:02:06.629Z,87.9
2017-11-12T15:02:47.209Z,87.85
2017-11-12T15:03:27.748Z,87.42
2017-11-12T15:04:08.462Z,87.61
2017-11-12T15:04:49.030Z,88.28
2017-11-12T15:05:29.543Z,88.56
2017-11-12T15:06:10.250Z,89.27
2017-11-12T15:06:50.989Z,88.6
2017-11-12T15:07:31.600Z,88.51
2017-11-12T15:08:12.104Z,88.23
2017-11-12T15:08:52.723Z,88.7
2017-11-12T15:09:33.273Z,88.13
2017-11-12T15:10:13.863Z,88.85
2017-11-12T15:10:54.539Z,89.7
2017-11-12T15:11:35.026Z,89.75
2017-11-12T15:12:15.578Z,89.89
2017-11-12T15:12:56.365Z,89.7
2017-11-12T15:13:36.993Z,90.28
2017-11-12T15:14:17.653Z,90.08
2017-11-12T15:14:58.340Z,90.28
2017-11-12T15:15:38.883Z,88.75
2017-11-12T15:16:19.398Z,88.46
2017-11-12T15:17:00.064Z,89.32
2017-11-12T15:17:40.662Z,90.37
2017-11-12T15:18:21.341Z,90.56
2017-11-12T15:19:02.146Z,91.13
2017-11-12T15:19:42.923Z,90.75
2017-11-12T15:20:23.505Z,91.17
2017-11-12T15:21:04.234Z,91.03
2017-11-12T15:21:44.835Z,90.75
2017-11-12T15:22:25.321Z,90.66
2017-11-12T15:23:05.942Z,91.08
2017-11-12T15:23:46.568Z,90.61
2017-11-12T15:24:27.073Z,89.84
2017-11-12T15:25:07.766Z,88.66
2017-11-12T15:25:48.341Z,89.51
2017-11-12T15:26:29.273Z,88.85
2017-11-12T15:27:09.843Z,88.28
2017-11-12T15:27:50.496Z,88.75
2017-11-12T15:28:31.196Z,88.75
2017-11-12T15:29:12.194Z,89.14
2017-11-12T15:29:53.036Z,89.42
2017-11-12T15:30:33.761Z,89.89
2017-11-12T15:31:14.431Z,89.51
2017-11-12T15:31:55.040Z,89.7
2017-11-12T15:32:36.015Z,90.37
2017-11-12T15:33:16.753Z,90.75
2017-11-12T15:33:59.242Z,90.66
2017-11-12T15:34:39.836Z,91.42
2017-11-12T15:35:20.410Z,90.47
2017-11-12T15:36:00.937Z,89.89
2017-11-12T15:36:41.443Z,90.75
2017-11-12T15:37:22.756Z,91.03
2017-11-12T15:38:03.201Z,92.08
2017-11-12T15:38:44.001Z,92.84
2017-11-12T15:39:24.582Z,91.03
2017-11-12T15:40:05.348Z,91.32
2017-11-12T15:40:45.917Z,91.89
2017-11-12T15:41:26.653Z,92.46
2017-11-12T15:42:07.059Z,92.75
2017-11-12T15:42:47.647Z,92.65
2017-11-12T15:43:28.223Z,92.46
2017-11-12T15:44:08.880Z,92.36
2017-11-12T15:44:49.487Z,92.46
2017-11-12T15:45:30.183Z,91.61
2017-11-12T15:46:10.764Z,90.94
2017-11-12T15:46:51.377Z,90.94
2017-11-12T15:47:32.148Z,90.47
2017-11-12T15:48:12.858Z,90.47
2017-11-12T15:48:54.235Z,90.8
2017-11-12T15:49:34.876Z,90.7
2017-11-12T15:50:15.275Z,92.03
2017-11-12T15:50:55.960Z,92.51
2017-11-12T15:51:36.563Z,93.55
2017-11-12T15:52:17.262Z,93.18
2017-11-12T15:52:57.852Z,92.32
2017-11-12T15:53:38.509Z,92.51
2017-11-12T15:54:19.091Z,92.7
2017-11-12T15:54:59.675Z,93.65
2017-11-12T15:55:40.256Z,93.6
2017-11-12T15:56:20.890Z,93.18
2017-11-12T15:57:01.321Z,92.7
2017-11-12T15:57:41.874Z,92.61
2017-11-12T15:58:22.474Z,92.32
2017-11-12T15:59:03.149Z,92.89
2017-11-12T15:59:43.694Z,92.41
2017-11-12T16:00:24.250Z,92.61
2017-11-12T16:01:05.101Z,93.18
2017-11-12T16:01:45.712Z,92.89
2017-11-12T16:02:26.275Z,92.41
2017-11-12T16:03:06.925Z,93.75
2017-11-12T16:03:47.483Z,92.8
2017-11-12T16:04:28.299Z,92.51
2017-11-12T16:05:08.961Z,92.7
2017-11-12T16:05:50.205Z,92.8
2017-11-12T16:06:30.852Z,93.55
2017-11-12T16:07:11.364Z,93.55
2017-11-12T16:07:51.923Z,93.46
2017-11-12T16:08:32.574Z,93.27
2017-11-12T16:09:13.135Z,93.46
2017-11-12T16:09:53.738Z,93.65
2017-11-12T16:10:34.564Z,94.22
2017-11-12T16:11:15.410Z,94.79
2017-11-12T16:11:56.062Z,94.7
2017-11-12T16:12:36.714Z,94.89
2017-11-12T16:13:17.287Z,94.32
2017-11-12T16:13:58.000Z,94.6